Time,TemperatureF,DewpointF,PressureIn,WindDirection,WindDirectionDegrees,WindSpeedMPH,WindSpeedGustMPH,Humidity,HourlyPrecipIn,Conditions,Clouds,dailyrainin,SoftwareType,DateUTC
2013-06-26 00:01:00,60.0,59.0,30.01,SW,223,1.0,3.0,96,-99.99,,,-99.99,,2013-06-26 07:01:00,
2013-06-26 00:11:00,60.0,59.0,30.00,SW,223,1.0,2.0,96,-99.99,,,-99.99,,2013-06-26 07:11:00,
2013-06-26 00:21:00,60.0,59.0,30.00,SW,223,1.0,2.0,96,-99.99,,,-99.99,,2013-06-26 07:21:00,
2013-06-26 00:33:00,60.0,59.0,30.01,SW,223,0.0,2.0,97,-99.99,,,-99.99,,2013-06-26 07:33:00,
2013-06-26 00:43:00,60.0,59.0,30.01,SW,223,0.0,2.0,97,-99.99,,,-99.99,,2013-06-26 07:43:00,
2013-06-26 00:53:00,60.0,59.0,30.01,SW,223,0.0,2.0,97,-99.99,,,-99.99,,2013-06-26 07:53:00,
2013-06-26 01:01:00,60.0,59.0,30.01,SW,223,0.0,2.0,97,-99.99,,,-99.99,,2013-06-26 08:01:00,
2013-06-26 01:11:00,60.0,59.0,30.01,SW,223,0.0,2.0,97,-99.99,,,-99.99,,2013-06-26 08:11:00,
2013-06-26 01:43:00,60.0,59.0,30.00,SW,223,0.0,0.0,97,-99.99,,,-99.99,,2013-06-26 08:43:00,
2013-06-26 01:53:00,60.0,59.0,30.00,SW,223,0.0,0.0,97,-99.99,,,-99.99,,2013-06-26 08:53:00,
2013-06-26 02:01:00,60.0,59.0,30.00,SW,223,0.0,0.0,97,-99.99,,,-99.99,,2013-06-26 09:01:00,
2013-06-26 02:11:00,60.0,59.0,30.00,SW,223,0.0,0.0,97,-99.99,,,-99.99,,2013-06-26 09:11:00,
2013-06-26 02:22:00,60.0,59.0,30.00,SW,223,0.0,0.0,97,-99.99,,,-99.99,,2013-06-26 09:22:00,
2013-06-26 02:32:00,60.0,59.0,30.00,SW,223,0.0,0.0,97,-99.99,,,-99.99,,2013-06-26 09:32:00,
2013-06-26 02:43:00,60.0,59.0,30.00,SW,223,0.0,0.0,97,-99.99,,,-99.99,,2013-06-26 09:43:00,
2013-06-26 02:53:00,60.0,59.0,30.00,SW,223,0.0,0.0,97,-99.99,,,-99.99,,2013-06-26 09:53:00,
2013-06-26 03:01:00,61.0,60.0,30.00,SW,223,0.0,0.0,97,-99.99,,,-99.99,,2013-06-26 10:01:00,
2013-06-26 03:12:00,61.0,60.0,29.99,SW,223,0.0,0.0,97,-99.99,,,-99.99,,2013-06-26 10:12:00,
2013-06-26 03:22:00,61.0,60.0,29.99,SW,223,0.0,0.0,97,-99.99,,,-99.99,,2013-06-26 10:22:00,
2013-06-26 03:34:00,61.0,60.0,29.99,SW,223,0.0,0.0,98,-99.99,,,-99.99,,2013-06-26 10:34:00,
2013-06-26 03:43:00,61.0,60.0,29.99,SW,223,0.0,0.0,98,-99.99,,,-99.99,,2013-06-26 10:43:00,
2013-06-26 03:53:00,61.0,60.0,29.99,SW,223,0.0,0.0,98,-99.99,,,-99.99,,2013-06-26 10:53:00,
2013-06-26 04:02:00,61.0,60.0,29.99,SW,223,0.0,0.0,98,-99.99,,,-99.99,,2013-06-26 11:02:00,
2013-06-26 04:11:00,61.0,60.0,29.99,SW,223,0.0,0.0,98,-99.99,,,-99.99,,2013-06-26 11:11:00,
2013-06-26 04:22:00,61.0,60.0,29.99,SW,223,0.0,0.0,98,-99.99,,,-99.99,,2013-06-26 11:22:00,
2013-06-26 04:32:00,61.0,60.0,29.99,SW,223,0.0,0.0,98,-99.99,,,-99.99,,2013-06-26 11:32:00,
2013-06-26 04:44:00,61.0,60.0,29.99,SW,223,0.0,0.0,98,-99.99,,,-99.99,,2013-06-26 11:44:00,
2013-06-26 04:52:00,61.0,60.0,29.99,SW,223,0.0,0.0,98,-99.99,,,-99.99,,2013-06-26 11:52:00,
2013-06-26 05:02:00,61.0,60.0,29.99,SW,223,0.0,0.0,98,-99.99,,,-99.99,,2013-06-26 12:02:00,
2013-06-26 05:11:00,61.0,60.0,29.99,SW,223,0.0,0.0,98,-99.99,,,-99.99,,2013-06-26 12:11:00,
2013-06-26 05:22:00,61.0,60.0,30.00,SW,223,0.0,0.0,98,-99.99,,,-99.99,,2013-06-26 12:22:00,
2013-06-26 05:33:00,61.0,60.0,30.00,SW,223,0.0,0.0,98,-99.99,,,-99.99,,2013-06-26 12:33:00,
2013-06-26 05:42:00,61.0,60.0,30.00,SW,223,0.0,0.0,98,-99.99,,,-99.99,,2013-06-26 12:42:00,
2013-06-26 05:52:00,61.0,60.0,30.01,SW,223,0.0,0.0,98,-99.99,,,-99.99,,2013-06-26 12:52:00,
2013-06-26 06:02:00,61.0,60.0,30.01,SW,223,0.0,0.0,98,-99.99,,,-99.99,,2013-06-26 13:02:00,
2013-06-26 06:22:00,60.0,59.0,30.01,SW,223,0.0,0.0,98,-99.99,,,-99.99,,2013-06-26 13:22:00,
2013-06-26 06:34:00,60.0,59.0,30.01,SW,223,0.0,0.0,98,-99.99,,,-99.99,,2013-06-26 13:34:00,
2013-06-26 06:42:00,61.0,60.0,30.02,SW,223,0.0,0.0,98,-99.99,,,-99.99,,2013-06-26 13:42:00,
2013-06-26 06:53:00,61.0,60.0,30.02,SW,223,0.0,0.0,98,-99.99,,,-99.99,,2013-06-26 13:53:00,
2013-06-26 07:02:00,61.0,60.0,30.02,SW,223,0.0,0.0,98,-99.99,,,-99.99,,2013-06-26 14:02:00,
2013-06-26 07:11:00,61.0,60.0,30.02,SW,223,0.0,0.0,98,-99.99,,,-99.99,,2013-06-26 14:11:00,
2013-06-26 07:23:00,61.0,60.0,30.02,SW,223,0.0,0.0,98,-99.99,,,-99.99,,2013-06-26 14:23:00,
2013-06-26 07:33:00,61.0,60.0,30.03,North,352,0.0,0.0,98,-99.99,,,-99.99,,2013-06-26 14:33:00,
2013-06-26 07:42:00,62.0,61.0,30.03,North,353,0.0,1.0,98,-99.99,,,-99.99,,2013-06-26 14:42:00,
2013-06-26 07:53:00,62.0,61.0,30.04,NNW,329,0.0,1.0,98,-99.99,,,-99.99,,2013-06-26 14:53:00,
2013-06-26 08:02:00,62.0,61.0,30.04,NNW,329,0.0,1.0,98,-99.99,,,-99.99,,2013-06-26 15:02:00,
2013-06-26 08:11:00,62.0,61.0,30.04,NNW,329,0.0,1.0,98,-99.99,,,-99.99,,2013-06-26 15:11:00,
2013-06-26 08:33:00,62.0,61.0,30.05,NNW,336,0.0,2.0,98,-99.99,,,-99.99,,2013-06-26 15:33:00,
2013-06-26 08:43:00,62.0,61.0,30.05,NNW,336,0.0,2.0,98,-99.99,,,-99.99,,2013-06-26 15:43:00,
2013-06-26 08:53:00,63.0,62.0,30.05,North,3,0.0,2.0,98,-99.99,,,-99.99,,2013-06-26 15:53:00,
2013-06-26 09:01:00,63.0,62.0,30.05,NNE,27,3.0,3.0,98,-99.99,,,-99.99,,2013-06-26 16:01:00,
2013-06-26 09:11:00,63.0,62.0,30.05,NNE,31,0.0,3.0,98,-99.99,,,-99.99,,2013-06-26 16:11:00,
2013-06-26 09:22:00,64.0,63.0,30.05,North,0,0.0,2.0,98,-99.99,,,-99.99,,2013-06-26 16:22:00,
2013-06-26 09:34:00,65.0,64.0,30.05,NW,308,0.0,2.0,98,-99.99,,,-99.99,,2013-06-26 16:34:00,
2013-06-26 09:43:00,65.0,64.0,30.05,NW,308,0.0,2.0,98,-99.99,,,-99.99,,2013-06-26 16:43:00,
2013-06-26 09:52:00,66.0,65.0,30.05,SW,217,2.0,2.0,98,-99.99,,,-99.99,,2013-06-26 16:52:00,
2013-06-26 10:01:00,66.0,65.0,30.05,SW,217,2.0,2.0,98,-99.99,,,-99.99,,2013-06-26 17:01:00,
2013-06-26 10:11:00,66.0,65.0,30.05,SW,217,2.0,2.0,98,-99.99,,,-99.99,,2013-06-26 17:11:00,
2013-06-26 10:23:00,66.0,65.0,30.05,SW,217,2.0,2.0,98,-99.99,,,-99.99,,2013-06-26 17:23:00,
2013-06-26 10:33:00,68.0,66.0,30.04,WSW,246,0.0,6.0,94,-99.99,,,-99.99,,2013-06-26 17:33:00,
2013-06-26 10:43:00,68.0,66.0,30.04,WSW,246,0.0,6.0,94,-99.99,,,-99.99,,2013-06-26 17:43:00,
2013-06-26 10:52:00,68.0,66.0,30.04,WSW,246,0.0,6.0,94,-99.99,,,-99.99,,2013-06-26 17:52:00,
2013-06-26 11:01:00,68.0,66.0,30.04,WSW,246,0.0,6.0,94,-99.99,,,-99.99,,2013-06-26 18:01:00,
2013-06-26 11:34:00,75.0,65.0,30.03,West,280,0.0,8.0,70,-99.99,,,-99.99,,2013-06-26 18:34:00,
2013-06-26 11:43:00,76.0,65.0,30.03,West,260,1.0,10.0,68,-99.99,,,-99.99,,2013-06-26 18:43:00,
2013-06-26 11:52:00,78.0,66.0,30.03,West,260,2.0,11.0,66,-99.99,,,-99.99,,2013-06-26 18:52:00,
2013-06-26 12:01:00,80.0,67.0,30.03,WNW,291,6.0,6.0,64,-99.99,,,-99.99,,2013-06-26 19:01:00,
2013-06-26 12:11:00,80.0,67.0,30.03,WNW,291,6.0,6.0,64,-99.99,,,-99.99,,2013-06-26 19:11:00,
2013-06-26 12:22:00,81.0,66.0,30.03,SW,226,3.0,8.0,60,-99.99,,,-99.99,,2013-06-26 19:22:00,
2013-06-26 12:32:00,81.0,66.0,30.03,SW,226,3.0,8.0,60,-99.99,,,-99.99,,2013-06-26 19:32:00,
2013-06-26 12:52:00,79.0,64.0,30.03,SW,230,10.0,13.0,61,-99.99,,,-99.99,,2013-06-26 19:52:00,
2013-06-26 13:01:00,79.0,64.0,30.03,SW,236,10.0,13.0,61,-99.99,,,-99.99,,2013-06-26 20:01:00,
2013-06-26 13:12:00,79.0,64.0,30.03,SW,223,8.0,14.0,61,-99.99,,,-99.99,,2013-06-26 20:12:00,
2013-06-26 13:22:00,79.0,64.0,30.03,SW,223,8.0,14.0,61,-99.99,,,-99.99,,2013-06-26 20:22:00,
2013-06-26 13:33:00,79.0,64.0,30.03,SSW,209,11.0,14.0,61,-99.99,,,-99.99,,2013-06-26 20:33:00,
2013-06-26 13:43:00,79.0,64.0,30.03,SSW,209,11.0,14.0,61,-99.99,,,-99.99,,2013-06-26 20:43:00,
2013-06-26 13:52:00,77.0,63.0,30.03,SW,233,12.0,16.0,63,-99.99,,,-99.99,,2013-06-26 20:52:00,
2013-06-26 14:01:00,77.0,64.0,30.03,SSW,210,10.0,16.0,64,-99.99,,,-99.99,,2013-06-26 21:01:00,
2013-06-26 14:11:00,77.0,63.0,30.02,SW,224,13.0,16.0,63,-99.99,,,-99.99,,2013-06-26 21:11:00,
2013-06-26 14:23:00,77.0,64.0,30.02,SW,219,8.0,16.0,64,-99.99,,,-99.99,,2013-06-26 21:23:00,
2013-06-26 14:33:00,77.0,64.0,30.02,SW,219,8.0,16.0,64,-99.99,,,-99.99,,2013-06-26 21:33:00,
2013-06-26 14:43:00,77.0,64.0,30.02,SW,219,8.0,16.0,64,-99.99,,,-99.99,,2013-06-26 21:43:00,
2013-06-26 14:52:00,77.0,63.0,30.02,WNW,285,11.0,17.0,62,-99.99,,,-99.99,,2013-06-26 21:52:00,
2013-06-26 15:01:00,77.0,63.0,30.02,WSW,244,4.0,14.0,63,-99.99,,,-99.99,,2013-06-26 22:01:00,
2013-06-26 15:11:00,77.0,63.0,30.02,WSW,244,4.0,14.0,63,-99.99,,,-99.99,,2013-06-26 22:11:00,
2013-06-26 15:21:00,77.0,63.0,30.02,WSW,244,4.0,14.0,63,-99.99,,,-99.99,,2013-06-26 22:21:00,
2013-06-26 15:33:00,75.0,62.0,30.02,SSW,212,8.0,16.0,64,-99.99,,,-99.99,,2013-06-26 22:33:00,
2013-06-26 15:43:00,75.0,62.0,30.02,SW,232,7.0,16.0,64,-99.99,,,-99.99,,2013-06-26 22:43:00,
2013-06-26 15:52:00,75.0,62.0,30.02,SW,232,7.0,16.0,64,-99.99,,,-99.99,,2013-06-26 22:52:00,
2013-06-26 16:01:00,75.0,62.0,30.02,SW,232,7.0,16.0,64,-99.99,,,-99.99,,2013-06-26 23:01:00,
2013-06-26 16:11:00,75.0,62.0,30.02,SSW,209,4.0,13.0,65,-99.99,,,-99.99,,2013-06-26 23:11:00,
2013-06-26 16:34:00,76.0,62.0,30.02,SW,223,7.0,13.0,62,-99.99,,,-99.99,,2013-06-26 23:34:00,
2013-06-26 16:43:00,76.0,62.0,30.02,SW,223,7.0,13.0,62,-99.99,,,-99.99,,2013-06-26 23:43:00,
2013-06-26 16:52:00,75.0,62.0,30.01,SW,233,10.0,12.0,65,-99.99,,,-99.99,,2013-06-26 23:52:00,
2013-06-26 17:01:00,75.0,62.0,30.01,SW,233,10.0,12.0,65,-99.99,,,-99.99,,2013-06-27 00:01:00,
2013-06-26 17:11:00,75.0,62.0,30.01,SW,233,10.0,12.0,65,-99.99,,,-99.99,,2013-06-27 00:11:00,
2013-06-26 17:33:00,75.0,62.0,30.01,SW,226,6.0,13.0,65,-99.99,,,-99.99,,2013-06-27 00:33:00,
2013-06-26 17:42:00,75.0,62.0,30.01,SW,226,6.0,13.0,65,-99.99,,,-99.99,,2013-06-27 00:42:00,
2013-06-26 17:53:00,74.0,62.0,30.01,SW,234,6.0,13.0,66,-99.99,,,-99.99,,2013-06-27 00:53:00,
2013-06-26 18:01:00,74.0,62.0,30.01,SW,224,10.0,13.0,67,-99.99,,,-99.99,,2013-06-27 01:01:00,
2013-06-26 18:11:00,74.0,62.0,30.01,SW,224,10.0,13.0,67,-99.99,,,-99.99,,2013-06-27 01:11:00,
2013-06-26 18:21:00,73.0,61.0,30.01,SW,233,8.0,13.0,67,-99.99,,,-99.99,,2013-06-27 01:21:00,
2013-06-26 18:32:00,73.0,61.0,30.01,SW,233,8.0,13.0,67,-99.99,,,-99.99,,2013-06-27 01:32:00,
2013-06-26 18:42:00,73.0,61.0,30.01,SW,233,8.0,13.0,67,-99.99,,,-99.99,,2013-06-27 01:42:00,
2013-06-26 18:53:00,73.0,61.0,30.01,SW,233,8.0,13.0,67,-99.99,,,-99.99,,2013-06-27 01:53:00,
2013-06-26 19:01:00,73.0,61.0,30.01,SW,233,8.0,13.0,67,-99.99,,,-99.99,,2013-06-27 02:01:00,
2013-06-26 19:32:00,72.0,61.0,30.01,SW,219,5.0,10.0,68,-99.99,,,-99.99,,2013-06-27 02:32:00,
2013-06-26 19:42:00,72.0,61.0,30.01,SW,219,5.0,10.0,68,-99.99,,,-99.99,,2013-06-27 02:42:00,
2013-06-26 19:52:00,72.0,61.0,30.01,SW,219,5.0,10.0,68,-99.99,,,-99.99,,2013-06-27 02:52:00,
2013-06-26 20:01:00,72.0,61.0,30.01,SW,219,5.0,10.0,68,-99.99,,,-99.99,,2013-06-27 03:01:00,
2013-06-26 20:11:00,72.0,61.0,30.01,SW,219,5.0,10.0,68,-99.99,,,-99.99,,2013-06-27 03:11:00,
2013-06-26 20:22:00,69.0,60.0,30.01,South,188,6.0,8.0,73,-99.99,,,-99.99,,2013-06-27 03:22:00,
2013-06-26 20:33:00,69.0,60.0,30.01,South,188,6.0,8.0,73,-99.99,,,-99.99,,2013-06-27 03:33:00,
2013-06-26 20:42:00,69.0,60.0,30.01,South,188,6.0,8.0,73,-99.99,,,-99.99,,2013-06-27 03:42:00,
2013-06-26 20:52:00,69.0,60.0,30.01,South,188,6.0,8.0,73,-99.99,,,-99.99,,2013-06-27 03:52:00,
2013-06-26 21:01:00,67.0,60.0,30.02,SSW,210,4.0,7.0,78,-99.99,,,-99.99,,2013-06-27 04:01:00,
2013-06-26 21:11:00,67.0,60.0,30.02,SSW,210,4.0,7.0,78,-99.99,,,-99.99,,2013-06-27 04:11:00,
2013-06-26 21:32:00,67.0,60.0,30.02,SSW,210,4.0,7.0,78,-99.99,,,-99.99,,2013-06-27 04:32:00,
2013-06-26 21:42:00,65.0,59.0,30.03,SSW,213,1.0,3.0,82,-99.99,,,-99.99,,2013-06-27 04:42:00,
2013-06-26 21:52:00,65.0,59.0,30.03,SSW,213,1.0,3.0,82,-99.99,,,-99.99,,2013-06-27 04:52:00,
2013-06-26 22:02:00,65.0,60.0,30.03,WSW,239,2.0,3.0,83,-99.99,,,-99.99,,2013-06-27 05:02:00,
2013-06-26 22:12:00,65.0,60.0,30.03,WSW,239,2.0,3.0,83,-99.99,,,-99.99,,2013-06-27 05:12:00,
2013-06-26 22:21:00,65.0,60.0,30.03,WSW,239,2.0,3.0,83,-99.99,,,-99.99,,2013-06-27 05:21:00,
2013-06-26 22:32:00,64.0,59.0,30.04,West,264,0.0,2.0,85,-99.99,,,-99.99,,2013-06-27 05:32:00,
2013-06-26 22:42:00,64.0,59.0,30.04,West,264,0.0,2.0,85,-99.99,,,-99.99,,2013-06-27 05:42:00,
2013-06-26 22:53:00,64.0,59.0,30.04,West,264,0.0,2.0,85,-99.99,,,-99.99,,2013-06-27 05:53:00,
2013-06-26 23:01:00,64.0,60.0,30.05,West,264,0.0,1.0,86,-99.99,,,-99.99,,2013-06-27 06:01:00,
2013-06-26 23:12:00,63.0,59.0,30.05,WNW,288,0.0,2.0,86,-99.99,,,-99.99,,2013-06-27 06:12:00,
2013-06-26 23:22:00,63.0,59.0,30.06,WNW,288,0.0,0.0,86,-99.99,,,-99.99,,2013-06-27 06:22:00,
2013-06-26 23:34:00,63.0,59.0,30.06,WNW,288,0.0,1.0,87,-99.99,,,-99.99,,2013-06-27 06:34:00,
2013-06-26 23:43:00,63.0,59.0,30.06,WNW,288,0.0,1.0,87,-99.99,,,-99.99,,2013-06-27 06:43:00,
2013-06-26 23:53:00,63.0,59.0,30.06,WNW,288,0.0,1.0,87,-99.99,,,-99.99,,2013-06-27 06:53:00,